createdAt,value
2018-03-27T08:55:43.497Z,63.64
2018-03-27T08:55:57.149Z,63.64
2018-03-27T09:00:33.034Z,63.64
2018-03-27T09:02:54.073Z,63.64
2018-03-27T10:22:06.342Z,54.75
2018-03-27T10:23:14.394Z,57.99
2018-03-27T10:24:22.465Z,56.46
2018-03-27T10:25:30.603Z,56.82
2018-03-27T10:26:38.648Z,56.72
2018-03-27T10:27:46.692Z,58.08
2018-03-27T10:28:54.720Z,57.89
2018-03-27T10:30:02.857Z,57.70
2018-03-27T10:31:10.907Z,56.56
2018-03-27T10:32:18.911Z,55.99
2018-03-27T10:33:27.846Z,57.32
2018-03-27T10:34:35.234Z,56.02
2018-03-27T10:35:43.124Z,55.92
2018-03-27T10:37:59.344Z,55.35
2018-03-27T10:39:07.306Z,55.35
2018-03-27T10:40:15.379Z,55.63
2018-03-27T10:41:23.496Z,55.09
2018-03-27T10:42:31.543Z,53.73
2018-03-27T10:43:39.565Z,53.47
2018-03-27T10:44:47.712Z,53.47
2018-03-27T10:45:55.734Z,53.95
2018-03-27T10:47:03.855Z,51.95
2018-03-27T10:48:11.916Z,49.82
2018-03-27T10:49:19.968Z,51.25
2018-03-27T10:50:28.008Z,50.40
2018-03-27T10:51:36.126Z,49.63
2018-03-27T10:52:44.128Z,51.06
2018-03-27T10:53:52.194Z,50.68
2018-03-27T10:55:00.229Z,53.80
2018-03-27T10:56:09.159Z,53.35
2018-03-27T10:57:16.407Z,51.06
2018-03-27T10:58:24.490Z,49.23
2018-03-27T10:59:32.498Z,51.14
2018-03-27T11:00:40.652Z,52.28
2018-03-27T11:01:48.626Z,52.11
2018-03-27T11:02:56.756Z,51.54
2018-03-27T11:04:04.834Z,52.78
2018-03-27T11:05:12.899Z,53.61
2018-03-27T11:06:20.894Z,52.28
2018-03-27T11:07:28.980Z,52.37
2018-03-27T11:08:37.083Z,54.30
2018-03-27T11:09:45.093Z,49.63
2018-03-27T11:10:53.154Z,50.87
2018-03-27T11:12:01.283Z,51.54
2018-03-27T11:13:09.332Z,51.82
2018-03-27T11:14:17.352Z,50.49
2018-03-27T11:15:25.411Z,50.30
2018-03-27T11:16:33.536Z,50.40
2018-03-27T11:17:41.541Z,50.97
2018-03-27T11:18:49.671Z,49.44
2018-03-27T11:19:57.675Z,52.40
2018-03-27T11:21:05.837Z,50.21
2018-03-27T11:22:13.833Z,51.06
2018-03-27T11:23:21.931Z,51.56
2018-03-27T11:24:30.035Z,45.94
2018-03-27T11:25:38.008Z,46.99
2018-03-27T11:26:46.123Z,46.23
2018-03-27T11:27:54.140Z,46.97
2018-03-27T11:29:02.282Z,48.02
2018-03-27T11:30:10.290Z,49.16
2018-03-27T11:31:18.356Z,48.49
2018-03-27T11:32:26.401Z,48.68
2018-03-27T11:33:34.572Z,47.94
2018-03-27T11:34:42.572Z,50.71
2018-03-27T11:35:50.592Z,43.75
2018-03-27T11:36:58.736Z,45.47
2018-03-27T11:38:06.717Z,44.51
2018-03-27T11:39:14.895Z,45.65
2018-03-27T11:40:22.873Z,47.37
2018-03-27T11:41:30.923Z,46.32
2018-03-27T11:42:38.998Z,48.23
2018-03-27T11:43:47.061Z,48.99
2018-03-27T11:44:55.169Z,49.78
2018-03-27T11:46:03.271Z,48.92
2018-03-27T11:47:11.251Z,47.97
2018-03-27T11:48:19.394Z,47.39
2018-03-27T11:49:27.495Z,46.34
2018-03-27T11:50:35.516Z,47.49
2018-03-27T11:51:43.534Z,43.87
2018-03-27T11:52:51.664Z,43.96
2018-03-27T11:53:59.700Z,46.82
2018-03-27T11:55:07.723Z,45.68
2018-03-27T11:56:15.786Z,43.39
2018-03-27T11:57:23.880Z,43.49
2018-03-27T11:58:32.002Z,44.06
2018-03-27T11:59:40.027Z,43.77
2018-03-27T12:00:48.189Z,39.86
2018-03-27T12:01:56.236Z,39.58
2018-03-27T12:03:04.226Z,41.77
2018-03-27T12:04:12.252Z,41.96
2018-03-27T12:05:20.318Z,41.20
2018-03-27T12:06:28.474Z,42.05
2018-03-27T12:07:36.514Z,40.91
2018-03-27T12:08:44.592Z,44.44
2018-03-27T12:09:52.593Z,45.87
2018-03-27T12:11:00.740Z,43.32
2018-03-27T12:12:08.819Z,41.98
2018-03-27T12:13:16.798Z,40.63
2018-03-27T12:14:24.913Z,41.58
2018-03-27T12:15:32.947Z,43.01
2018-03-27T12:16:40.975Z,42.34
2018-03-27T12:17:49.078Z,43.39
2018-03-27T12:18:57.145Z,43.29
2018-03-27T12:20:05.194Z,44.15
2018-03-27T12:21:13.278Z,40.53
2018-03-27T12:22:21.410Z,41.20
2018-03-27T12:23:29.480Z,39.86
2018-03-27T12:24:37.472Z,41.69
2018-03-27T12:25:45.578Z,41.03
2018-03-27T12:26:53.614Z,43.10
2018-03-27T12:28:01.648Z,42.63
2018-03-27T12:29:09.705Z,42.82
2018-03-27T12:30:17.856Z,41.94
2018-03-27T12:31:25.917Z,40.80
2018-03-27T12:32:33.957Z,39.44
2018-03-27T12:33:42.057Z,41.06
2018-03-27T12:34:50.088Z,42.01
2018-03-27T12:35:58.147Z,42.40
2018-03-27T12:37:06.195Z,42.40
2018-03-27T12:38:14.277Z,42.01
2018-03-27T12:39:22.317Z,43.91
2018-03-27T12:40:30.369Z,43.18
2018-03-27T12:41:38.579Z,43.65
2018-03-27T12:42:46.592Z,41.29
2018-03-27T12:43:54.652Z,39.58
2018-03-27T12:45:02.649Z,41.96
2018-03-27T12:46:10.728Z,42.72
2018-03-27T12:47:18.845Z,42.44
2018-03-27T12:48:26.908Z,43.96
2018-03-27T12:49:34.967Z,40.45
2018-03-27T12:50:43.075Z,40.72
2018-03-27T12:51:51.123Z,42.34
2018-03-27T12:52:59.175Z,43.39
2018-03-27T12:54:07.192Z,43.29
2018-03-27T12:55:15.300Z,44.15
2018-03-27T12:56:23.381Z,41.77
2018-03-27T12:57:31.384Z,42.82
2018-03-27T12:58:39.546Z,44.06
2018-03-27T12:59:47.520Z,43.39
2018-03-27T13:00:55.625Z,44.13
2018-03-27T13:02:03.635Z,41.84
2018-03-27T13:03:11.701Z,43.75
2018-03-27T13:04:19.817Z,45.47
2018-03-27T13:05:27.846Z,42.70
2018-03-27T13:06:35.920Z,45.56
2018-03-27T13:07:44.039Z,45.47
2018-03-27T13:08:52.083Z,44.80
2018-03-27T13:10:00.121Z,44.04
2018-03-27T13:11:08.168Z,43.08
2018-03-27T13:12:16.281Z,43.18
2018-03-27T13:13:24.298Z,43.63
2018-03-27T13:14:32.362Z,43.91
2018-03-27T13:15:40.461Z,44.20
2018-03-27T13:16:48.518Z,44.01
2018-03-27T13:17:56.622Z,43.25
2018-03-27T13:19:04.719Z,44.60
2018-03-27T13:20:12.686Z,44.11
2018-03-27T13:21:20.796Z,44.59
2018-03-27T13:22:28.851Z,43.44
2018-03-27T13:23:36.975Z,44.49
2018-03-27T13:24:44.952Z,45.15
2018-03-27T13:25:53.056Z,44.49
2018-03-27T13:27:01.150Z,45.42
2018-03-27T13:28:09.248Z,44.01
2018-03-27T13:29:17.312Z,44.59
2018-03-27T13:30:25.301Z,45.44
2018-03-27T13:31:33.430Z,44.78
2018-03-27T13:32:41.423Z,45.83
2018-03-27T13:33:49.524Z,44.70
2018-03-27T13:34:57.603Z,42.99
2018-03-27T13:36:05.626Z,44.63
2018-03-27T13:37:13.689Z,44.25
2018-03-27T13:38:21.805Z,43.39
2018-03-27T13:39:29.811Z,42.65
2018-03-27T13:40:37.941Z,40.83
2018-03-27T13:41:46.009Z,41.41
2018-03-27T13:42:53.997Z,39.12
2018-03-27T13:44:02.143Z,41.41
2018-03-27T13:45:10.206Z,41.98
2018-03-27T13:46:18.202Z,40.93
2018-03-27T13:47:27.968Z,42.74
2018-03-27T13:48:34.446Z,42.08
2018-03-27T13:49:42.394Z,40.55
2018-03-27T13:50:50.540Z,39.98
2018-03-27T13:51:58.548Z,41.22
2018-03-27T13:53:06.725Z,40.55
2018-03-27T13:54:14.711Z,40.55
2018-03-27T13:55:22.737Z,41.77
2018-03-27T13:56:30.871Z,40.72
2018-03-27T13:57:38.878Z,41.00
2018-03-27T13:58:46.943Z,41.12
2018-03-27T13:59:55.000Z,42.34
2018-03-27T14:01:03.126Z,40.36
2018-03-27T14:02:11.141Z,39.02
2018-03-27T14:03:19.295Z,41.03
2018-03-27T14:04:27.279Z,40.74
2018-03-27T14:05:35.338Z,40.83
2018-03-27T14:06:43.467Z,39.02
2018-03-27T14:07:51.466Z,39.22
2018-03-27T14:08:59.631Z,39.00
2018-03-27T14:10:07.652Z,39.95
2018-03-27T14:11:15.773Z,39.58
2018-03-27T14:12:23.812Z,40.91
2018-03-27T14:13:31.824Z,41.96
2018-03-27T14:14:39.944Z,41.67
2018-03-27T14:15:47.991Z,41.39
2018-03-27T14:16:56.012Z,40.91
2018-03-27T14:18:04.145Z,41.29
2018-03-27T14:19:12.172Z,40.72
2018-03-27T14:20:20.198Z,42.05
2018-03-27T14:21:28.327Z,40.05
2018-03-27T14:22:36.350Z,40.91
2018-03-27T14:23:44.480Z,39.29
2018-03-27T14:24:52.496Z,37.84
2018-03-27T14:26:00.539Z,38.12
2018-03-27T14:27:08.648Z,39.46
2018-03-27T14:28:16.701Z,41.08
2018-03-27T14:29:24.727Z,40.30
2018-03-27T14:30:32.890Z,41.35
2018-03-27T14:31:40.922Z,44.39
2018-03-27T14:32:48.954Z,41.72
2018-03-27T14:33:57.005Z,43.91
2018-03-27T14:35:05.090Z,44.78
2018-03-27T14:36:13.154Z,44.09
2018-03-27T14:37:21.292Z,43.35
2018-03-27T14:38:29.317Z,42.01
2018-03-27T14:39:37.348Z,42.01
2018-03-27T14:40:45.660Z,44.09
2018-03-27T14:41:53.535Z,44.18
2018-03-27T14:43:01.505Z,43.13
2018-03-27T14:44:09.660Z,42.37
2018-03-27T14:45:18.325Z,41.89
2018-03-27T14:46:25.779Z,42.85
2018-03-27T14:47:33.801Z,44.09
2018-03-27T14:48:41.886Z,41.99
2018-03-27T14:49:49.913Z,41.13
2018-03-27T14:50:57.976Z,41.80
2018-03-27T14:52:06.088Z,42.66
2018-03-27T14:53:14.105Z,43.90
2018-03-27T14:54:22.207Z,43.51
2018-03-27T14:55:30.362Z,43.23
2018-03-27T14:56:38.340Z,42.76
2018-03-27T14:57:46.372Z,43.44
2018-03-27T14:58:54.516Z,43.82
2018-03-27T15:00:02.528Z,42.20
2018-03-27T15:01:10.587Z,43.82
2018-03-27T15:02:18.651Z,42.68
2018-03-27T15:03:26.759Z,44.39
2018-03-27T15:04:34.810Z,43.91
2018-03-27T15:05:42.863Z,44.49
2018-03-27T15:06:50.904Z,44.20
2018-03-27T15:07:59.038Z,43.91
2018-03-27T15:09:12.602Z,43.82
2018-03-27T15:10:18.129Z,43.82
2018-03-27T15:11:26.247Z,42.49
2018-03-27T15:12:34.272Z,43.35
2018-03-27T15:13:42.317Z,43.35
2018-03-27T15:14:50.354Z,44.39
2018-03-27T15:15:58.418Z,43.73
2018-03-27T15:17:06.531Z,42.87
2018-03-27T15:18:14.552Z,43.91
2018-03-27T15:19:22.611Z,43.35
2018-03-27T15:20:30.761Z,42.68
2018-03-27T15:21:38.736Z,43.82
2018-03-27T15:22:46.886Z,44.11
2018-03-27T15:23:54.860Z,43.35
2018-03-27T15:25:02.978Z,43.73
2018-03-27T15:26:11.042Z,42.58
2018-03-27T15:27:19.081Z,44.30
2018-03-27T15:28:27.186Z,44.30
2018-03-27T15:29:35.266Z,44.01
2018-03-27T15:30:43.302Z,43.25
2018-03-27T15:31:51.328Z,42.77
2018-03-27T15:32:59.422Z,43.90
2018-03-27T15:34:07.456Z,43.80
2018-03-27T15:35:15.557Z,44.66
2018-03-27T15:36:23.686Z,43.90
2018-03-27T15:37:31.655Z,45.23
2018-03-27T15:38:39.827Z,45.51
2018-03-27T15:39:47.788Z,45.04
2018-03-27T15:40:58.373Z,43.99
2018-03-27T15:42:03.909Z,44.46
2018-03-27T15:43:12.005Z,44.46
2018-03-27T15:44:20.090Z,44.94
2018-03-27T15:45:28.096Z,45.51
2018-03-27T15:46:36.207Z,44.94
2018-03-27T15:47:44.276Z,44.56
2018-03-27T15:48:52.328Z,45.49
2018-03-27T15:50:00.387Z,46.35
2018-03-27T15:51:08.491Z,46.73
2018-03-27T15:52:16.499Z,46.63
2018-03-27T15:53:24.671Z,46.06
2018-03-27T15:54:32.722Z,47.58
2018-03-27T15:55:40.747Z,46.44
2018-03-27T15:56:48.854Z,47.39
2018-03-27T15:57:56.859Z,46.73
2018-03-27T15:59:04.877Z,46.33
2018-03-27T16:00:12.958Z,46.06
2018-03-27T16:01:21.078Z,46.99
2018-03-27T16:02:29.146Z,48.13
2018-03-27T16:03:37.194Z,47.37
2018-03-27T16:04:45.200Z,48.71
2018-03-27T16:05:53.269Z,48.42
2018-03-27T16:07:01.440Z,47.94
2018-03-27T16:08:09.450Z,48.03
2018-03-27T16:09:17.535Z,49.65
2018-03-27T16:10:25.523Z,48.90
2018-03-27T16:11:33.656Z,48.13
2018-03-27T16:12:41.643Z,48.03
2018-03-27T16:13:49.774Z,48.80
2018-03-27T16:14:57.774Z,48.71
2018-03-27T16:16:05.918Z,48.03
2018-03-27T16:17:13.917Z,47.94
2018-03-27T16:18:22.037Z,47.28
2018-03-27T16:19:30.153Z,47.28
2018-03-27T16:20:38.198Z,47.94
2018-03-27T16:21:46.155Z,47.94
2018-03-27T16:22:54.286Z,47.37
2018-03-27T16:24:02.330Z,48.90
2018-03-27T16:25:10.413Z,48.90
2018-03-27T16:26:18.418Z,49.37
2018-03-27T16:27:26.550Z,48.51
2018-03-27T16:28:34.542Z,48.80
2018-03-27T16:29:42.652Z,48.42
2018-03-27T16:30:50.753Z,48.99
2018-03-27T16:31:58.878Z,49.08
2018-03-27T16:33:06.793Z,48.61
2018-03-27T16:34:14.899Z,48.99
2018-03-27T16:35:22.997Z,49.56
2018-03-27T16:36:30.995Z,49.18
2018-03-27T16:37:39.138Z,48.80
2018-03-27T16:38:47.114Z,49.56
2018-03-27T16:39:55.237Z,48.32
2018-03-27T16:41:03.242Z,48.61
2018-03-27T16:42:11.345Z,48.32
2018-03-27T16:43:19.374Z,49.63
2018-03-27T16:44:27.490Z,50.10
2018-03-27T16:45:35.525Z,49.06
2018-03-27T16:46:43.644Z,49.44
2018-03-27T16:47:51.625Z,50.20
2018-03-27T16:48:59.786Z,49.73
2018-03-27T16:50:07.825Z,49.73
2018-03-27T16:51:15.835Z,50.48
2018-03-27T16:52:23.895Z,49.82
2018-03-27T16:53:31.995Z,49.91
2018-03-27T16:54:40.005Z,50.29
2018-03-27T16:55:48.196Z,50.29
2018-03-27T16:56:56.140Z,50.01
2018-03-27T16:58:04.293Z,50.77
2018-03-27T16:59:12.351Z,50.87
2018-03-27T17:00:20.319Z,51.25
2018-03-27T17:01:28.456Z,50.87
2018-03-27T17:02:36.522Z,51.15
2018-03-27T17:03:44.546Z,51.34
2018-03-27T17:04:52.589Z,51.15
2018-03-27T17:06:00.641Z,51.25
2018-03-27T17:07:08.745Z,51.15
2018-03-27T17:08:16.881Z,51.62
2018-03-27T17:09:24.909Z,52.20
2018-03-27T17:10:32.943Z,52.01
2018-03-27T17:11:41.008Z,52.48
2018-03-27T17:12:49.046Z,52.55
2018-03-27T17:13:57.136Z,52.45
2018-03-27T17:15:06.632Z,52.64
2018-03-27T17:16:13.220Z,53.12
2018-03-27T17:17:21.273Z,52.93
2018-03-27T17:18:29.416Z,53.69
2018-03-27T17:19:37.437Z,53.50
2018-03-27T17:20:45.474Z,53.59
2018-03-27T17:21:53.540Z,54.07
2018-03-27T17:23:01.589Z,54.17
2018-03-27T17:24:09.703Z,54.36
2018-03-27T17:25:17.733Z,54.45
2018-03-27T17:26:25.818Z,53.78
2018-03-27T17:27:33.892Z,54.74
2018-03-27T17:28:42.015Z,54.74
2018-03-27T17:29:50.010Z,54.74
2018-03-27T17:30:58.018Z,54.83
2018-03-27T17:32:06.161Z,54.83
2018-03-27T17:33:14.174Z,55.40
2018-03-27T17:34:22.248Z,55.97
2018-03-27T17:35:30.275Z,56.16
2018-03-27T17:36:38.403Z,54.64
2018-03-27T17:37:46.388Z,54.74
2018-03-27T17:38:54.589Z,54.93
2018-03-27T17:40:02.550Z,55.11
2018-03-27T17:41:10.614Z,56.54
2018-03-27T17:42:18.720Z,57.28
2018-03-27T17:43:26.744Z,57.75
2018-03-27T17:44:34.846Z,59.17
2018-03-27T17:45:42.881Z,59.08
2018-03-27T17:46:50.907Z,59.65
2018-03-27T17:47:59.024Z,60.22
2018-03-27T17:49:07.029Z,60.22
2018-03-27T17:50:15.194Z,60.88
2018-03-27T17:51:23.166Z,60.31
2018-03-27T17:52:31.270Z,60.98
2018-03-27T17:53:39.315Z,61.07
2018-03-27T17:54:47.395Z,62.02
2018-03-27T17:55:55.488Z,61.93
2018-03-27T17:57:03.539Z,63.35
2018-03-27T17:58:11.566Z,64.59
2018-03-27T17:59:19.591Z,65.25
2018-03-27T18:00:27.728Z,65.63
2018-03-27T18:01:35.749Z,64.08
2018-03-27T18:02:43.794Z,66.08
2018-03-27T18:03:51.854Z,65.88
2018-03-27T18:04:59.942Z,67.02
2018-03-27T18:06:07.949Z,65.50
2018-03-27T18:07:16.086Z,65.41
2018-03-27T18:08:24.070Z,66.55
2018-03-27T18:09:32.144Z,66.27
2018-03-27T18:10:40.258Z,65.88
2018-03-27T18:11:48.337Z,64.84
2018-03-27T18:12:57.852Z,66.46
2018-03-27T18:14:04.439Z,66.36
2018-03-27T18:15:12.476Z,67.50
2018-03-27T18:16:20.540Z,68.44
2018-03-27T18:17:28.571Z,69.68
2018-03-27T18:18:36.721Z,70.35
2018-03-27T18:19:44.730Z,70.82
2018-03-27T18:20:52.761Z,71.01
2018-03-27T18:22:01.109Z,70.21
2018-03-27T18:23:08.996Z,70.54
2018-03-27T18:24:16.959Z,71.45
2018-03-27T18:25:25.046Z,70.50
2018-03-27T18:26:33.126Z,71.17
2018-03-27T18:27:41.140Z,68.89
2018-03-27T18:28:49.257Z,70.59
2018-03-27T18:29:57.258Z,68.60
2018-03-27T18:31:05.326Z,70.69
2018-03-27T18:32:13.430Z,71.64
2018-03-27T18:33:21.427Z,72.21
2018-03-27T18:34:29.612Z,72.49
2018-03-27T18:35:37.566Z,70.88
2018-03-27T18:36:45.659Z,72.59
2018-03-27T18:37:53.681Z,73.07
2018-03-27T18:39:01.848Z,72.68
2018-03-27T18:40:09.794Z,73.16
2018-03-27T18:41:17.912Z,71.17
2018-03-27T18:42:25.916Z,73.07
2018-03-27T18:43:34.092Z,72.21
2018-03-27T18:44:42.124Z,73.25
2018-03-27T18:45:50.104Z,72.21
2018-03-27T18:46:58.167Z,72.49
2018-03-27T18:48:06.220Z,72.88
2018-03-27T18:49:14.298Z,74.11
2018-03-27T18:50:22.399Z,74.96
2018-03-27T18:51:30.417Z,73.07
2018-03-27T18:52:38.530Z,75.53
2018-03-27T18:53:46.573Z,72.78
2018-03-27T18:54:54.588Z,72.30
2018-03-27T18:56:02.666Z,74.20
2018-03-27T18:57:10.746Z,74.01
2018-03-27T18:58:18.832Z,74.77
2018-03-27T18:59:26.838Z,74.49
2018-03-27T19:00:34.963Z,72.97
2018-03-27T19:01:42.971Z,72.02
2018-03-27T19:02:51.063Z,72.88
2018-03-27T19:04:00.630Z,74.20
2018-03-27T19:05:07.201Z,74.77
2018-03-27T19:06:17.006Z,72.97
2018-03-27T19:07:26.659Z,72.49
2018-03-27T19:08:33.133Z,71.92
2018-03-27T19:09:41.291Z,72.02
2018-03-27T19:10:49.274Z,73.63
2018-03-27T19:11:57.328Z,72.59
2018-03-27T19:13:05.385Z,73.35
2018-03-27T19:14:13.494Z,72.88
2018-03-27T19:15:21.506Z,71.92
2018-03-27T19:16:29.623Z,76.01
2018-03-27T19:17:37.634Z,72.97
2018-03-27T19:18:45.800Z,74.68
2018-03-27T19:19:53.748Z,73.82
2018-03-27T19:21:01.867Z,74.54
2018-03-27T19:22:09.922Z,73.60
2018-03-27T19:23:18.128Z,74.83
2018-03-27T19:24:27.537Z,75.31
2018-03-27T19:25:34.053Z,76.06
2018-03-27T19:26:42.166Z,74.45
2018-03-27T19:27:50.164Z,76.25
2018-03-27T19:28:58.272Z,73.79
2018-03-27T19:30:06.324Z,73.97
2018-03-27T19:31:14.490Z,74.64
2018-03-27T19:32:22.409Z,76.44
2018-03-27T19:33:30.540Z,75.78
2018-03-27T19:34:38.524Z,75.59
2018-03-27T19:35:46.643Z,76.15
2018-03-27T19:36:54.638Z,76.44
2018-03-27T19:38:02.754Z,75.96
2018-03-27T19:39:10.768Z,75.96
2018-03-27T19:40:18.872Z,75.21
2018-03-27T19:41:26.904Z,75.96
2018-03-27T19:42:35.025Z,75.31
2018-03-27T19:43:43.034Z,74.73
2018-03-27T19:44:51.110Z,77.48
2018-03-27T19:45:59.135Z,78.34
2018-03-27T19:47:07.261Z,76.34
2018-03-27T19:48:15.262Z,78.15
2018-03-27T19:49:23.446Z,76.06
2018-03-27T19:50:31.407Z,77.96
2018-03-27T19:51:39.455Z,79.47
2018-03-27T19:52:47.576Z,77.96
2018-03-27T19:53:55.580Z,78.43
2018-03-27T19:55:03.612Z,76.06
2018-03-27T19:56:11.732Z,77.01
2018-03-27T19:57:19.730Z,78.81
2018-03-27T19:58:27.784Z,80.33
2018-03-27T19:59:35.931Z,78.91
2018-03-27T20:00:43.945Z,77.96
2018-03-27T20:01:52.012Z,78.15
2018-03-27T20:03:00.033Z,77.58
2018-03-27T20:04:08.222Z,76.73
2018-03-27T20:05:16.153Z,77.48
2018-03-27T20:06:24.252Z,77.96
2018-03-27T20:07:32.277Z,78.43
2018-03-27T20:08:40.434Z,79.66
2018-03-27T20:09:51.256Z,77.48
2018-03-27T20:10:56.493Z,77.96
2018-03-27T20:12:04.568Z,78.81
2018-03-27T20:13:12.663Z,80.52
2018-03-27T20:14:20.688Z,82.23
2018-03-27T20:15:41.700Z,82.79
2018-03-27T20:16:36.840Z,82.98
2018-03-27T20:17:45.117Z,82.51
2018-03-27T20:18:53.004Z,80.62
2018-03-27T20:20:01.008Z,79.38
2018-03-27T20:21:09.108Z,82.23
2018-03-27T20:22:17.125Z,82.42
2018-03-27T20:23:25.131Z,82.28
2018-03-27T20:24:33.233Z,80.48
2018-03-27T20:25:41.236Z,77.73
2018-03-27T20:26:49.363Z,80.04
2018-03-27T20:27:57.370Z,81.27
2018-03-27T20:29:05.492Z,81.56
2018-03-27T20:30:13.482Z,82.04
2018-03-27T20:31:21.596Z,82.23
2018-03-27T20:32:29.652Z,82.70
2018-03-27T20:33:37.695Z,81.18
2018-03-27T20:34:45.729Z,81.09
2018-03-27T20:35:53.820Z,82.60
2018-03-27T20:37:01.849Z,82.60
2018-03-27T20:38:09.953Z,81.18
2018-03-27T20:39:17.970Z,80.99
2018-03-27T20:40:26.142Z,80.24
2018-03-27T20:41:34.122Z,81.66
2018-03-27T20:42:42.181Z,79.57
2018-03-27T20:43:50.212Z,80.33
2018-03-27T20:44:58.593Z,80.71
2018-03-27T20:46:06.320Z,82.51
2018-03-27T20:47:14.415Z,82.51
2018-03-27T20:48:22.458Z,81.75
2018-03-27T20:49:30.742Z,82.04
2018-03-27T20:50:38.823Z,81.27
2018-03-27T20:51:46.868Z,80.71
2018-03-27T20:52:54.730Z,82.51
2018-03-27T20:54:02.896Z,83.84
2018-03-27T20:55:10.810Z,83.17
2018-03-27T20:56:18.849Z,82.51
2018-03-27T20:57:27.000Z,80.19
2018-03-27T20:58:35.568Z,78.91
2018-03-27T20:59:43.452Z,80.04
2018-03-27T21:00:51.506Z,78.81
2018-03-27T21:01:59.165Z,81.18
2018-03-27T21:03:07.256Z,81.09
2018-03-27T21:04:17.867Z,82.60
2018-03-27T21:05:23.392Z,82.60
2018-03-27T21:06:31.768Z,80.71
2018-03-27T21:07:39.479Z,78.24
2018-03-27T21:08:47.629Z,80.71
2018-03-27T21:09:55.578Z,79.38
2018-03-27T21:11:03.646Z,80.52
2018-03-27T21:12:12.097Z,82.79
2018-03-27T21:13:19.897Z,82.04
2018-03-27T21:14:27.847Z,82.32
2018-03-27T21:15:35.948Z,83.36
2018-03-27T21:16:43.973Z,82.23
2018-03-27T21:17:52.005Z,82.32
2018-03-27T21:19:00.135Z,82.70
2018-03-27T21:20:08.180Z,81.09
2018-03-27T21:21:16.278Z,82.51
2018-03-27T21:22:24.321Z,80.99
2018-03-27T21:23:32.382Z,83.36
2018-03-27T21:24:40.366Z,79.28
2018-03-27T21:25:48.472Z,79.57
2018-03-27T21:26:56.539Z,79.28
2018-03-27T21:28:04.543Z,79.85
2018-03-27T21:29:12.744Z,80.71
2018-03-27T21:30:20.805Z,80.04
2018-03-27T21:31:28.722Z,80.62
2018-03-27T21:32:36.780Z,82.13
2018-03-27T21:33:44.913Z,81.09
2018-03-27T21:34:52.985Z,80.24
2018-03-27T21:36:00.979Z,79.76
2018-03-27T21:37:09.020Z,78.72
2018-03-27T21:38:17.085Z,80.52
2018-03-27T21:39:25.209Z,80.62
2018-03-27T21:40:33.292Z,82.60
2018-03-27T21:41:41.285Z,83.17
2018-03-27T21:42:49.333Z,82.32
2018-03-27T21:43:57.399Z,84.98
2018-03-27T21:45:05.474Z,84.98
2018-03-27T21:46:13.543Z,86.45
2018-03-27T21:47:21.601Z,85.60
2018-03-27T21:48:29.881Z,84.84
2018-03-27T21:49:37.724Z,82.94
2018-03-27T21:50:45.774Z,83.23
2018-03-27T21:51:53.800Z,84.74
2018-03-27T21:53:01.909Z,81.81
2018-03-27T21:54:09.920Z,80.10
2018-03-27T21:55:18.064Z,81.52
2018-03-27T21:56:26.107Z,84.31
2018-03-27T21:57:34.100Z,83.74
2018-03-27T21:58:42.159Z,83.17
2018-03-27T21:59:50.282Z,81.52
2018-03-27T22:00:59.845Z,81.66
2018-03-27T22:02:06.423Z,82.56
2018-03-27T22:03:14.422Z,83.36
2018-03-27T22:04:22.563Z,84.03
2018-03-27T22:05:30.582Z,84.03
2018-03-27T22:06:38.592Z,83.46
2018-03-27T22:07:46.742Z,82.13
2018-03-27T22:08:54.728Z,82.98
2018-03-27T22:10:02.888Z,85.45
2018-03-27T22:11:10.874Z,84.12
2018-03-27T22:12:18.886Z,85.36
2018-03-27T22:13:26.961Z,84.41
2018-03-27T22:14:35.082Z,83.36
2018-03-27T22:15:43.104Z,82.89
2018-03-27T22:16:51.120Z,84.03
2018-03-27T22:17:59.219Z,85.07
2018-03-27T22:19:07.363Z,83.36
2018-03-27T22:20:15.292Z,83.74
2018-03-27T22:21:23.414Z,83.74
2018-03-27T22:22:31.432Z,82.51
2018-03-27T22:23:39.545Z,82.42
2018-03-27T22:24:47.592Z,82.42
2018-03-27T22:25:55.604Z,83.84
2018-03-27T22:27:03.729Z,84.88
2018-03-27T22:28:11.933Z,81.27
2018-03-27T22:29:19.843Z,82.42
2018-03-27T22:30:27.860Z,82.04
2018-03-27T22:31:35.912Z,83.46
2018-03-27T22:32:44.040Z,82.98
2018-03-27T22:33:52.034Z,82.79
2018-03-27T22:35:00.103Z,84.22
2018-03-27T22:36:08.213Z,83.36
2018-03-27T22:37:16.212Z,82.60
2018-03-27T22:38:24.265Z,86.30
2018-03-27T22:39:32.377Z,84.88
2018-03-27T22:40:40.370Z,85.36
2018-03-27T22:41:48.484Z,85.83
2018-03-27T22:42:56.516Z,83.65
2018-03-27T22:44:04.581Z,82.60
2018-03-27T22:45:12.628Z,83.65
2018-03-27T22:46:20.687Z,84.50
2018-03-27T22:47:28.739Z,84.98
2018-03-27T22:48:36.854Z,84.78
2018-03-27T22:49:44.893Z,82.51
2018-03-27T22:50:52.946Z,81.85
2018-03-27T22:52:01.046Z,83.65
2018-03-27T22:53:09.106Z,82.70
2018-03-27T22:54:17.088Z,85.36
2018-03-27T22:55:25.168Z,86.30
2018-03-27T22:56:33.218Z,86.49
2018-03-27T22:57:41.383Z,86.11
2018-03-27T22:58:49.337Z,84.98
2018-03-27T22:59:57.473Z,84.98
2018-03-27T23:01:05.528Z,83.94
2018-03-27T23:02:13.518Z,86.30
2018-03-27T23:03:21.644Z,84.69
2018-03-27T23:04:29.659Z,82.98
2018-03-27T23:05:37.809Z,80.33
2018-03-27T23:06:45.780Z,82.79
2018-03-27T23:07:53.905Z,82.51
2018-03-27T23:09:01.877Z,84.41
2018-03-27T23:10:09.952Z,83.55
2018-03-27T23:11:18.048Z,84.22
2018-03-27T23:12:26.065Z,81.85
2018-03-27T23:13:34.208Z,81.66
2018-03-27T23:14:42.189Z,81.27
2018-03-27T23:15:50.237Z,83.65
2018-03-27T23:16:58.392Z,84.22
2018-03-27T23:18:07.936Z,82.60
2018-03-27T23:19:14.494Z,81.56
2018-03-27T23:20:22.498Z,83.17
2018-03-27T23:21:30.556Z,82.04
2018-03-27T23:22:38.636Z,83.74
2018-03-27T23:23:46.677Z,85.17
2018-03-27T23:24:54.733Z,80.52
2018-03-27T23:26:02.775Z,80.52
2018-03-27T23:27:10.898Z,84.31
2018-03-27T23:28:18.952Z,83.84
2018-03-27T23:29:27.002Z,81.56
2018-03-27T23:30:35.020Z,82.04
2018-03-27T23:31:43.147Z,85.26
2018-03-27T23:32:51.138Z,84.78
2018-03-27T23:33:59.203Z,84.78
2018-03-27T23:35:07.322Z,82.42
2018-03-27T23:36:15.384Z,82.51
2018-03-27T23:37:23.450Z,81.09
2018-03-27T23:38:31.444Z,82.51
2018-03-27T23:39:39.553Z,82.42
2018-03-27T23:40:47.615Z,82.70
2018-03-27T23:41:55.620Z,83.08
2018-03-27T23:43:03.755Z,83.65
2018-03-27T23:44:11.805Z,84.50
2018-03-27T23:45:19.839Z,83.84
2018-03-27T23:46:27.940Z,83.74
2018-03-27T23:47:35.959Z,84.03
2018-03-27T23:48:43.980Z,85.26
2018-03-27T23:49:52.139Z,83.84
2018-03-27T23:51:00.102Z,84.88
2018-03-27T23:52:08.292Z,86.68
2018-03-27T23:53:16.316Z,86.21
2018-03-27T23:54:24.302Z,83.55
2018-03-27T23:55:32.350Z,85.45
2018-03-27T23:56:40.444Z,85.74
2018-03-27T23:57:48.466Z,84.78
2018-03-27T23:58:56.639Z,85.07
